sensor_id;sensor_type;location;lat;lon;timestamp;P1;durP1;ratioP1;P2;durP2;ratioP2
59458;SDS011;45269;43.568;22.244;2023-04-03T00:00:21;66.22;;;42.10;;
59458;SDS011;45269;43.568;22.244;2023-04-03T00:02:47;58.60;;;38.17;;
59458;SDS011;45269;43.568;22.244;2023-04-03T00:05:12;32.55;;;22.65;;
59458;SDS011;45269;43.568;22.244;2023-04-03T00:07:37;69.00;;;43.65;;
59458;SDS011;45269;43.568;22.244;2023-04-03T00:10:03;79.20;;;52.80;;
59458;SDS011;45269;43.568;22.244;2023-04-03T00:12:28;87.13;;;59.75;;
59458;SDS011;45269;43.568;22.244;2023-04-03T00:14:53;81.35;;;54.47;;
59458;SDS011;45269;43.568;22.244;2023-04-03T00:17:19;78.22;;;53.17;;
59458;SDS011;45269;43.568;22.244;2023-04-03T00:19:44;62.22;;;42.53;;
59458;SDS011;45269;43.568;22.244;2023-04-03T00:22:10;63.00;;;41.15;;
59458;SDS011;45269;43.568;22.244;2023-04-03T00:24:35;61.42;;;42.42;;
59458;SDS011;45269;43.568;22.244;2023-04-03T00:27:00;49.33;;;35.47;;
59458;SDS011;45269;43.568;22.244;2023-04-03T00:29:26;65.00;;;44.80;;
59458;SDS011;45269;43.568;22.244;2023-04-03T00:31:51;72.70;;;49.75;;
59458;SDS011;45269;43.568;22.244;2023-04-03T00:34:16;61.78;;;40.58;;
59458;SDS011;45269;43.568;22.244;2023-04-03T00:36:42;63.35;;;41.55;;
59458;SDS011;45269;43.568;22.244;2023-04-03T00:39:07;59.47;;;37.65;;
59458;SDS011;45269;43.568;22.244;2023-04-03T00:41:32;67.20;;;41.97;;
59458;SDS011;45269;43.568;22.244;2023-04-03T00:43:58;59.97;;;40.90;;
59458;SDS011;45269;43.568;22.244;2023-04-03T00:46:23;62.25;;;41.67;;
59458;SDS011;45269;43.568;22.244;2023-04-03T00:48:49;68.30;;;45.85;;
59458;SDS011;45269;43.568;22.244;2023-04-03T00:51:16;49.58;;;38.38;;
59458;SDS011;45269;43.568;22.244;2023-04-03T00:53:49;56.35;;;42.90;;
59458;SDS011;45269;43.568;22.244;2023-04-03T00:56:16;28.95;;;22.63;;
59458;SDS011;45269;43.568;22.244;2023-04-03T00:58:50;39.88;;;30.38;;
59458;SDS011;45269;43.568;22.244;2023-04-03T01:01:17;39.80;;;30.75;;
59458;SDS011;45269;43.568;22.244;2023-04-03T01:03:43;22.00;;;16.92;;
59458;SDS011;45269;43.568;22.244;2023-04-03T01:06:09;24.52;;;19.05;;
59458;SDS011;45269;43.568;22.244;2023-04-03T01:08:34;20.77;;;15.00;;
59458;SDS011;45269;43.568;22.244;2023-04-03T01:11:00;20.60;;;16.70;;
59458;SDS011;45269;43.568;22.244;2023-04-03T01:13:27;32.30;;;22.58;;
59458;SDS011;45269;43.568;22.244;2023-04-03T01:15:53;29.77;;;23.33;;
59458;SDS011;45269;43.568;22.244;2023-04-03T01:18:19;26.92;;;21.13;;
59458;SDS011;45269;43.568;22.244;2023-04-03T01:20:49;17.17;;;13.93;;
59458;SDS011;45269;43.568;22.244;2023-04-03T01:23:32;10.77;;;8.82;;
59458;SDS011;45269;43.568;22.244;2023-04-03T01:26:01;17.85;;;13.65;;
59458;SDS011;45269;43.568;22.244;2023-04-03T01:28:31;20.25;;;16.60;;
59458;SDS011;45269;43.568;22.244;2023-04-03T01:31:02;17.23;;;14.43;;
59458;SDS011;45269;43.568;22.244;2023-04-03T01:33:30;12.35;;;11.00;;
59458;SDS011;45269;43.568;22.244;2023-04-03T01:35:56;57.08;;;40.03;;
59458;SDS011;45269;43.568;22.244;2023-04-03T01:38:21;58.17;;;42.53;;
59458;SDS011;45269;43.568;22.244;2023-04-03T01:40:46;154.93;;;82.93;;
59458;SDS011;45269;43.568;22.244;2023-04-03T01:43:12;76.95;;;43.58;;
59458;SDS011;45269;43.568;22.244;2023-04-03T01:45:37;19.75;;;12.35;;
59458;SDS011;45269;43.568;22.244;2023-04-03T01:48:02;10.88;;;8.73;;
59458;SDS011;45269;43.568;22.244;2023-04-03T01:50:28;16.20;;;13.55;;
59458;SDS011;45269;43.568;22.244;2023-04-03T01:52:53;18.63;;;15.18;;
59458;SDS011;45269;43.568;22.244;2023-04-03T01:55:18;14.73;;;11.65;;
59458;SDS011;45269;43.568;22.244;2023-04-03T01:57:44;13.05;;;9.98;;
59458;SDS011;45269;43.568;22.244;2023-04-03T02:00:09;23.15;;;18.70;;
59458;SDS011;45269;43.568;22.244;2023-04-03T02:02:35;25.92;;;21.65;;
59458;SDS011;45269;43.568;22.244;2023-04-03T02:05:00;25.48;;;20.48;;
59458;SDS011;45269;43.568;22.244;2023-04-03T02:07:25;23.40;;;18.38;;
59458;SDS011;45269;43.568;22.244;2023-04-03T02:09:51;22.20;;;18.10;;
59458;SDS011;45269;43.568;22.244;2023-04-03T02:12:16;26.35;;;19.92;;
59458;SDS011;45269;43.568;22.244;2023-04-03T02:14:42;29.42;;;21.55;;
59458;SDS011;45269;43.568;22.244;2023-04-03T02:17:07;33.55;;;24.45;;
59458;SDS011;45269;43.568;22.244;2023-04-03T02:19:34;28.95;;;19.90;;
59458;SDS011;45269;43.568;22.244;2023-04-03T02:22:00;22.67;;;18.40;;
59458;SDS011;45269;43.568;22.244;2023-04-03T02:24:25;35.58;;;27.50;;
59458;SDS011;45269;43.568;22.244;2023-04-03T02:26:50;60.70;;;43.95;;
59458;SDS011;45269;43.568;22.244;2023-04-03T02:29:16;40.65;;;29.30;;
59458;SDS011;45269;43.568;22.244;2023-04-03T02:31:41;31.52;;;21.45;;
59458;SDS011;45269;43.568;22.244;2023-04-03T02:34:06;16.92;;;13.30;;
59458;SDS011;45269;43.568;22.244;2023-04-03T02:36:32;13.98;;;10.85;;
59458;SDS011;45269;43.568;22.244;2023-04-03T02:38:57;10.35;;;8.52;;
59458;SDS011;45269;43.568;22.244;2023-04-03T02:41:22;9.65;;;7.78;;
59458;SDS011;45269;43.568;22.244;2023-04-03T02:43:48;60.85;;;38.30;;
59458;SDS011;45269;43.568;22.244;2023-04-03T02:46:13;157.45;;;102.28;;
59458;SDS011;45269;43.568;22.244;2023-04-03T02:48:40;103.57;;;64.03;;
59458;SDS011;45269;43.568;22.244;2023-04-03T02:51:05;50.42;;;34.40;;
59458;SDS011;45269;43.568;22.244;2023-04-03T02:53:31;49.03;;;34.25;;
59458;SDS011;45269;43.568;22.244;2023-04-03T02:55:56;65.65;;;47.00;;
59458;SDS011;45269;43.568;22.244;2023-04-03T02:58:21;69.55;;;50.17;;
59458;SDS011;45269;43.568;22.244;2023-04-03T03:00:46;62.88;;;44.33;;
59458;SDS011;45269;43.568;22.244;2023-04-03T03:03:12;53.70;;;39.13;;
59458;SDS011;45269;43.568;22.244;2023-04-03T03:05:39;112.97;;;69.97;;
59458;SDS011;45269;43.568;22.244;2023-04-03T03:08:04;186.85;;;107.30;;
59458;SDS011;45269;43.568;22.244;2023-04-03T03:10:29;154.02;;;90.25;;
59458;SDS011;45269;43.568;22.244;2023-04-03T03:12:55;106.80;;;66.88;;
59458;SDS011;45269;43.568;22.244;2023-04-03T03:15:20;102.82;;;67.60;;
59458;SDS011;45269;43.568;22.244;2023-04-03T03:17:46;84.32;;;51.08;;
59458;SDS011;45269;43.568;22.244;2023-04-03T03:20:11;55.75;;;34.67;;
59458;SDS011;45269;43.568;22.244;2023-04-03T03:22:39;30.67;;;22.08;;
59458;SDS011;45269;43.568;22.244;2023-04-03T03:25:04;26.08;;;19.40;;
59458;SDS011;45269;43.568;22.244;2023-04-03T03:27:31;17.23;;;14.05;;
59458;SDS011;45269;43.568;22.244;2023-04-03T03:29:56;13.52;;;10.90;;
59458;SDS011;45269;43.568;22.244;2023-04-03T03:32:21;23.50;;;18.30;;
59458;SDS011;45269;43.568;22.244;2023-04-03T03:34:46;20.95;;;14.70;;
59458;SDS011;45269;43.568;22.244;2023-04-03T03:37:12;20.13;;;15.50;;
59458;SDS011;45269;43.568;22.244;2023-04-03T03:39:37;23.55;;;16.33;;
59458;SDS011;45269;43.568;22.244;2023-04-03T03:42:02;24.73;;;16.67;;
59458;SDS011;45269;43.568;22.244;2023-04-03T03:44:28;36.80;;;26.13;;
59458;SDS011;45269;43.568;22.244;2023-04-03T03:46:56;41.50;;;30.45;;
59458;SDS011;45269;43.568;22.244;2023-04-03T03:49:21;34.90;;;25.75;;
59458;SDS011;45269;43.568;22.244;2023-04-03T03:51:46;18.55;;;13.80;;
59458;SDS011;45269;43.568;22.244;2023-04-03T03:54:12;16.38;;;13.13;;
59458;SDS011;45269;43.568;22.244;2023-04-03T03:56:37;19.88;;;16.85;;
59458;SDS011;45269;43.568;22.244;2023-04-03T03:59:03;20.40;;;15.10;;
59458;SDS011;45269;43.568;22.244;2023-04-03T04:01:28;24.60;;;19.73;;
59458;SDS011;45269;43.568;22.244;2023-04-03T04:03:53;30.67;;;23.70;;
59458;SDS011;45269;43.568;22.244;2023-04-03T04:06:19;41.58;;;30.27;;
59458;SDS011;45269;43.568;22.244;2023-04-03T04:08:45;26.08;;;20.60;;
59458;SDS011;45269;43.568;22.244;2023-04-03T04:11:10;30.20;;;23.70;;
59458;SDS011;45269;43.568;22.244;2023-04-03T04:13:36;25.70;;;21.08;;
59458;SDS011;45269;43.568;22.244;2023-04-03T04:16:01;121.60;;;84.03;;
59458;SDS011;45269;43.568;22.244;2023-04-03T04:18:27;113.88;;;78.78;;
59458;SDS011;45269;43.568;22.244;2023-04-03T04:20:52;104.97;;;73.00;;
59458;SDS011;45269;43.568;22.244;2023-04-03T04:23:17;76.88;;;55.15;;
59458;SDS011;45269;43.568;22.244;2023-04-03T04:25:49;81.03;;;56.95;;
59458;SDS011;45269;43.568;22.244;2023-04-03T04:28:15;73.88;;;53.67;;
59458;SDS011;45269;43.568;22.244;2023-04-03T04:30:40;64.22;;;47.42;;
59458;SDS011;45269;43.568;22.244;2023-04-03T04:33:06;68.90;;;50.03;;
59458;SDS011;45269;43.568;22.244;2023-04-03T04:35:32;37.40;;;28.80;;
59458;SDS011;45269;43.568;22.244;2023-04-03T04:37:57;29.83;;;24.83;;
59458;SDS011;45269;43.568;22.244;2023-04-03T04:40:22;30.42;;;24.63;;
59458;SDS011;45269;43.568;22.244;2023-04-03T04:42:48;32.35;;;25.90;;
59458;SDS011;45269;43.568;22.244;2023-04-03T04:45:13;30.77;;;26.42;;
59458;SDS011;45269;43.568;22.244;2023-04-03T04:47:39;33.60;;;25.67;;
59458;SDS011;45269;43.568;22.244;2023-04-03T04:50:05;22.25;;;18.33;;
59458;SDS011;45269;43.568;22.244;2023-04-03T04:52:30;14.88;;;12.75;;
59458;SDS011;45269;43.568;22.244;2023-04-03T04:54:56;19.92;;;16.23;;
59458;SDS011;45269;43.568;22.244;2023-04-03T04:57:21;49.13;;;36.92;;
59458;SDS011;45269;43.568;22.244;2023-04-03T04:59:46;53.17;;;38.75;;
59458;SDS011;45269;43.568;22.244;2023-04-03T05:02:11;115.70;;;81.72;;
59458;SDS011;45269;43.568;22.244;2023-04-03T05:04:37;29.38;;;24.63;;
59458;SDS011;45269;43.568;22.244;2023-04-03T05:07:02;37.38;;;28.42;;
59458;SDS011;45269;43.568;22.244;2023-04-03T05:09:27;156.30;;;92.50;;
59458;SDS011;45269;43.568;22.244;2023-04-03T05:11:53;194.77;;;118.75;;
59458;SDS011;45269;43.568;22.244;2023-04-03T05:14:18;146.27;;;94.45;;
59458;SDS011;45269;43.568;22.244;2023-04-03T05:16:44;65.63;;;47.30;;
59458;SDS011;45269;43.568;22.244;2023-04-03T05:19:09;82.07;;;59.05;;
59458;SDS011;45269;43.568;22.244;2023-04-03T05:21:35;76.40;;;54.95;;
59458;SDS011;45269;43.568;22.244;2023-04-03T05:24:00;74.88;;;57.50;;
59458;SDS011;45269;43.568;22.244;2023-04-03T05:26:30;105.22;;;75.30;;
59458;SDS011;45269;43.568;22.244;2023-04-03T05:28:55;140.85;;;93.80;;
59458;SDS011;45269;43.568;22.244;2023-04-03T05:31:21;130.85;;;89.53;;
59458;SDS011;45269;43.568;22.244;2023-04-03T05:33:48;109.78;;;74.60;;
59458;SDS011;45269;43.568;22.244;2023-04-03T05:36:14;103.78;;;71.63;;
59458;SDS011;45269;43.568;22.244;2023-04-03T05:38:40;89.90;;;65.82;;
59458;SDS011;45269;43.568;22.244;2023-04-03T05:41:05;83.45;;;59.00;;
59458;SDS011;45269;43.568;22.244;2023-04-03T05:43:31;108.00;;;75.85;;
59458;SDS011;45269;43.568;22.244;2023-04-03T05:45:56;32.20;;;25.23;;
59458;SDS011;45269;43.568;22.244;2023-04-03T05:48:21;115.65;;;85.43;;
59458;SDS011;45269;43.568;22.244;2023-04-03T05:50:47;96.90;;;75.28;;
59458;SDS011;45269;43.568;22.244;2023-04-03T05:53:14;61.60;;;48.75;;
59458;SDS011;45269;43.568;22.244;2023-04-03T05:55:40;71.40;;;56.78;;
59458;SDS011;45269;43.568;22.244;2023-04-03T05:58:06;75.72;;;57.92;;
59458;SDS011;45269;43.568;22.244;2023-04-03T06:00:31;81.97;;;64.85;;
59458;SDS011;45269;43.568;22.244;2023-04-03T06:02:56;68.10;;;53.65;;
59458;SDS011;45269;43.568;22.244;2023-04-03T06:05:22;58.13;;;47.17;;
59458;SDS011;45269;43.568;22.244;2023-04-03T06:07:47;64.22;;;48.35;;
59458;SDS011;45269;43.568;22.244;2023-04-03T06:10:14;73.90;;;55.22;;
59458;SDS011;45269;43.568;22.244;2023-04-03T06:12:39;77.85;;;59.92;;
59458;SDS011;45269;43.568;22.244;2023-04-03T06:15:05;58.58;;;42.53;;
59458;SDS011;45269;43.568;22.244;2023-04-03T06:17:30;50.75;;;39.72;;
59458;SDS011;45269;43.568;22.244;2023-04-03T06:19:56;38.95;;;30.70;;
59458;SDS011;45269;43.568;22.244;2023-04-03T06:22:23;27.40;;;19.73;;
59458;SDS011;45269;43.568;22.244;2023-04-03T06:24:50;31.42;;;28.08;;
59458;SDS011;45269;43.568;22.244;2023-04-03T06:27:15;30.27;;;26.80;;
59458;SDS011;45269;43.568;22.244;2023-04-03T06:29:41;23.10;;;20.60;;
59458;SDS011;45269;43.568;22.244;2023-04-03T06:32:07;24.23;;;16.75;;
59458;SDS011;45269;43.568;22.244;2023-04-03T06:34:32;16.88;;;14.70;;
59458;SDS011;45269;43.568;22.244;2023-04-03T06:36:58;12.75;;;11.43;;
59458;SDS011;45269;43.568;22.244;2023-04-03T06:39:23;13.77;;;12.18;;
59458;SDS011;45269;43.568;22.244;2023-04-03T06:41:49;26.02;;;18.15;;
59458;SDS011;45269;43.568;22.244;2023-04-03T06:44:15;32.10;;;23.67;;
59458;SDS011;45269;43.568;22.244;2023-04-03T06:46:41;18.95;;;15.65;;
59458;SDS011;45269;43.568;22.244;2023-04-03T06:49:06;19.92;;;15.45;;
59458;SDS011;45269;43.568;22.244;2023-04-03T06:51:35;30.33;;;25.33;;
59458;SDS011;45269;43.568;22.244;2023-04-03T06:54:00;55.75;;;41.30;;
59458;SDS011;45269;43.568;22.244;2023-04-03T06:56:26;38.10;;;30.80;;
59458;SDS011;45269;43.568;22.244;2023-04-03T06:58:52;25.30;;;20.55;;
59458;SDS011;45269;43.568;22.244;2023-04-03T07:01:19;34.28;;;30.63;;
59458;SDS011;45269;43.568;22.244;2023-04-03T07:03:45;34.63;;;30.83;;
59458;SDS011;45269;43.568;22.244;2023-04-03T07:06:11;35.10;;;30.17;;
59458;SDS011;45269;43.568;22.244;2023-04-03T07:08:37;72.35;;;51.95;;
59458;SDS011;45269;43.568;22.244;2023-04-03T07:11:03;21.17;;;18.52;;
59458;SDS011;45269;43.568;22.244;2023-04-03T07:13:28;11.80;;;10.68;;
59458;SDS011;45269;43.568;22.244;2023-04-03T07:15:54;16.83;;;14.93;;
59458;SDS011;45269;43.568;22.244;2023-04-03T07:18:19;17.08;;;13.82;;
59458;SDS011;45269;43.568;22.244;2023-04-03T07:20:46;21.77;;;16.85;;
59458;SDS011;45269;43.568;22.244;2023-04-03T07:23:11;18.63;;;14.55;;
59458;SDS011;45269;43.568;22.244;2023-04-03T07:25:37;55.33;;;48.90;;
59458;SDS011;45269;43.568;22.244;2023-04-03T07:30:33;12.35;;;11.18;;
59458;SDS011;45269;43.568;22.244;2023-04-03T07:32:58;10.55;;;9.45;;
59458;SDS011;45269;43.568;22.244;2023-04-03T07:35:23;18.63;;;16.75;;
59458;SDS011;45269;43.568;22.244;2023-04-03T07:37:49;12.63;;;11.32;;
59458;SDS011;45269;43.568;22.244;2023-04-03T07:40:14;13.93;;;12.50;;
59458;SDS011;45269;43.568;22.244;2023-04-03T07:42:39;14.43;;;11.98;;
59458;SDS011;45269;43.568;22.244;2023-04-03T07:45:05;12.23;;;10.50;;
59458;SDS011;45269;43.568;22.244;2023-04-03T07:47:30;17.80;;;15.95;;
59458;SDS011;45269;43.568;22.244;2023-04-03T07:49:56;13.95;;;12.52;;
59458;SDS011;45269;43.568;22.244;2023-04-03T07:52:22;19.65;;;13.18;;
59458;SDS011;45269;43.568;22.244;2023-04-03T07:54:47;17.20;;;14.35;;
59458;SDS011;45269;43.568;22.244;2023-04-03T07:57:12;14.15;;;12.65;;
59458;SDS011;45269;43.568;22.244;2023-04-03T07:59:38;15.70;;;14.05;;
59458;SDS011;45269;43.568;22.244;2023-04-03T08:02:04;15.38;;;13.85;;
59458;SDS011;45269;43.568;22.244;2023-04-03T08:04:30;13.20;;;11.88;;
59458;SDS011;45269;43.568;22.244;2023-04-03T08:06:55;15.48;;;13.95;;
59458;SDS011;45269;43.568;22.244;2023-04-03T08:09:20;12.18;;;11.02;;
59458;SDS011;45269;43.568;22.244;2023-04-03T08:11:46;9.68;;;8.75;;
59458;SDS011;45269;43.568;22.244;2023-04-03T08:14:11;9.85;;;8.95;;
59458;SDS011;45269;43.568;22.244;2023-04-03T08:16:42;7.65;;;6.95;;
59458;SDS011;45269;43.568;22.244;2023-04-03T08:19:07;8.32;;;7.60;;
59458;SDS011;45269;43.568;22.244;2023-04-03T08:21:32;8.77;;;7.97;;
59458;SDS011;45269;43.568;22.244;2023-04-03T08:23:58;11.05;;;10.02;;
59458;SDS011;45269;43.568;22.244;2023-04-03T08:26:23;18.98;;;17.15;;
59458;SDS011;45269;43.568;22.244;2023-04-03T08:28:48;7.10;;;6.50;;
59458;SDS011;45269;43.568;22.244;2023-04-03T08:31:15;7.68;;;6.97;;
59458;SDS011;45269;43.568;22.244;2023-04-03T08:33:42;7.32;;;6.63;;
59458;SDS011;45269;43.568;22.244;2023-04-03T08:36:14;6.63;;;5.90;;
59458;SDS011;45269;43.568;22.244;2023-04-03T08:38:40;5.20;;;4.70;;
59458;SDS011;45269;43.568;22.244;2023-04-03T08:46:17;9.13;;;7.97;;
59458;SDS011;45269;43.568;22.244;2023-04-03T08:48:45;8.20;;;7.40;;
59458;SDS011;45269;43.568;22.244;2023-04-03T08:51:12;6.22;;;5.63;;
59458;SDS011;45269;43.568;22.244;2023-04-03T08:53:40;11.20;;;9.93;;
59458;SDS011;45269;43.568;22.244;2023-04-03T08:56:10;6.13;;;5.53;;
59458;SDS011;45269;43.568;22.244;2023-04-03T09:03:44;4.93;;;4.53;;
59458;SDS011;45269;43.568;22.244;2023-04-03T09:06:13;7.70;;;6.63;;
59458;SDS011;45269;43.568;22.244;2023-04-03T09:19:02;6.68;;;6.00;;
59458;SDS011;45269;43.568;22.244;2023-04-03T09:21:32;7.28;;;6.40;;
59458;SDS011;45269;43.568;22.244;2023-04-03T09:24:00;5.43;;;4.93;;
59458;SDS011;45269;43.568;22.244;2023-04-03T09:26:28;6.45;;;5.60;;
59458;SDS011;45269;43.568;22.244;2023-04-03T09:28:54;6.73;;;6.03;;
59458;SDS011;45269;43.568;22.244;2023-04-03T09:31:25;5.40;;;4.75;;
59458;SDS011;45269;43.568;22.244;2023-04-03T09:33:52;4.90;;;4.50;;
59458;SDS011;45269;43.568;22.244;2023-04-03T09:36:37;5.38;;;4.88;;
59458;SDS011;45269;43.568;22.244;2023-04-03T09:39:03;5.97;;;5.32;;
59458;SDS011;45269;43.568;22.244;2023-04-03T09:41:30;3.83;;;3.53;;
59458;SDS011;45269;43.568;22.244;2023-04-03T09:43:55;5.63;;;5.13;;
59458;SDS011;45269;43.568;22.244;2023-04-03T09:49:02;4.85;;;4.40;;
59458;SDS011;45269;43.568;22.244;2023-04-03T09:51:28;8.57;;;4.80;;
59458;SDS011;45269;43.568;22.244;2023-04-03T09:53:53;4.53;;;4.13;;
59458;SDS011;45269;43.568;22.244;2023-04-03T09:56:20;5.55;;;4.82;;
59458;SDS011;45269;43.568;22.244;2023-04-03T09:58:47;7.97;;;6.30;;
59458;SDS011;45269;43.568;22.244;2023-04-03T10:04:17;8.88;;;6.25;;
59458;SDS011;45269;43.568;22.244;2023-04-03T10:06:43;9.80;;;7.85;;
59458;SDS011;45269;43.568;22.244;2023-04-03T10:09:25;20.50;;;13.70;;
59458;SDS011;45269;43.568;22.244;2023-04-03T10:11:58;18.77;;;11.27;;
59458;SDS011;45269;43.568;22.244;2023-04-03T10:14:24;14.57;;;9.25;;
59458;SDS011;45269;43.568;22.244;2023-04-03T10:16:53;10.88;;;8.20;;
59458;SDS011;45269;43.568;22.244;2023-04-03T10:19:36;8.70;;;6.88;;
59458;SDS011;45269;43.568;22.244;2023-04-03T10:24:52;9.25;;;6.47;;
59458;SDS011;45269;43.568;22.244;2023-04-03T10:35:41;5.18;;;4.68;;
59458;SDS011;45269;43.568;22.244;2023-04-03T10:38:00;9.35;;;6.28;;
59458;SDS011;45269;43.568;22.244;2023-04-03T10:45:30;3.65;;;3.30;;
59458;SDS011;45269;43.568;22.244;2023-04-03T10:48:02;5.60;;;5.10;;
59458;SDS011;45269;43.568;22.244;2023-04-03T10:55:46;6.55;;;5.95;;
59458;SDS011;45269;43.568;22.244;2023-04-03T10:58:24;6.03;;;5.50;;
59458;SDS011;45269;43.568;22.244;2023-04-03T11:00:50;4.57;;;4.15;;
59458;SDS011;45269;43.568;22.244;2023-04-03T11:03:30;5.30;;;4.80;;
59458;SDS011;45269;43.568;22.244;2023-04-03T11:05:59;5.32;;;4.38;;
59458;SDS011;45269;43.568;22.244;2023-04-03T11:08:37;5.25;;;4.82;;
59458;SDS011;45269;43.568;22.244;2023-04-03T11:11:20;7.07;;;5.30;;
59458;SDS011;45269;43.568;22.244;2023-04-03T11:16:38;5.22;;;4.72;;
59458;SDS011;45269;43.568;22.244;2023-04-03T11:19:14;4.90;;;4.50;;
59458;SDS011;45269;43.568;22.244;2023-04-03T11:21:44;6.20;;;5.60;;
59458;SDS011;45269;43.568;22.244;2023-04-03T11:24:15;5.50;;;5.00;;
59458;SDS011;45269;43.568;22.244;2023-04-03T11:26:41;9.57;;;7.65;;
59458;SDS011;45269;43.568;22.244;2023-04-03T11:29:12;9.73;;;8.73;;
59458;SDS011;45269;43.568;22.244;2023-04-03T11:34:21;7.47;;;6.70;;
59458;SDS011;45269;43.568;22.244;2023-04-03T11:36:50;6.20;;;5.60;;
59458;SDS011;45269;43.568;22.244;2023-04-03T11:39:29;4.97;;;4.57;;
59458;SDS011;45269;43.568;22.244;2023-04-03T11:41:55;4.75;;;4.35;;
59458;SDS011;45269;43.568;22.244;2023-04-03T11:44:37;5.30;;;4.80;;
59458;SDS011;45269;43.568;22.244;2023-04-03T11:47:04;4.60;;;4.20;;
59458;SDS011;45269;43.568;22.244;2023-04-03T11:52:39;4.57;;;4.18;;
59458;SDS011;45269;43.568;22.244;2023-04-03T11:55:00;5.60;;;5.10;;
59458;SDS011;45269;43.568;22.244;2023-04-03T11:57:45;5.90;;;5.30;;
59458;SDS011;45269;43.568;22.244;2023-04-03T12:03:08;8.40;;;6.75;;
59458;SDS011;45269;43.568;22.244;2023-04-03T12:13:38;4.40;;;4.00;;
59458;SDS011;45269;43.568;22.244;2023-04-03T12:16:08;5.05;;;4.65;;
59458;SDS011;45269;43.568;22.244;2023-04-03T12:21:22;7.80;;;7.03;;
59458;SDS011;45269;43.568;22.244;2023-04-03T12:26:22;10.32;;;9.05;;
59458;SDS011;45269;43.568;22.244;2023-04-03T12:28:50;5.70;;;5.20;;
59458;SDS011;45269;43.568;22.244;2023-04-03T12:31:17;7.75;;;6.95;;
59458;SDS011;45269;43.568;22.244;2023-04-03T12:39:13;9.98;;;8.98;;
59458;SDS011;45269;43.568;22.244;2023-04-03T12:44:47;15.30;;;12.68;;
59458;SDS011;45269;43.568;22.244;2023-04-03T12:47:51;14.73;;;13.13;;
59458;SDS011;45269;43.568;22.244;2023-04-03T12:50:20;13.65;;;12.23;;
59458;SDS011;45269;43.568;22.244;2023-04-03T12:52:56;11.15;;;9.93;;
59458;SDS011;45269;43.568;22.244;2023-04-03T12:55:22;15.48;;;13.88;;
59458;SDS011;45269;43.568;22.244;2023-04-03T12:57:48;13.60;;;12.13;;
59458;SDS011;45269;43.568;22.244;2023-04-03T13:00:30;23.63;;;19.55;;
59458;SDS011;45269;43.568;22.244;2023-04-03T13:02:57;29.45;;;25.60;;
59458;SDS011;45269;43.568;22.244;2023-04-03T13:05:23;31.30;;;26.33;;
59458;SDS011;45269;43.568;22.244;2023-04-03T13:07:49;29.85;;;25.02;;
59458;SDS011;45269;43.568;22.244;2023-04-03T13:10:16;27.80;;;24.77;;
59458;SDS011;45269;43.568;22.244;2023-04-03T13:12:48;32.03;;;28.52;;
59458;SDS011;45269;43.568;22.244;2023-04-03T13:17:40;40.72;;;32.70;;
59458;SDS011;45269;43.568;22.244;2023-04-03T13:20:26;25.88;;;21.33;;
59458;SDS011;45269;43.568;22.244;2023-04-03T13:22:56;22.20;;;19.23;;
59458;SDS011;45269;43.568;22.244;2023-04-03T13:25:22;16.88;;;15.05;;
59458;SDS011;45269;43.568;22.244;2023-04-03T13:27:48;19.55;;;17.55;;
59458;SDS011;45269;43.568;22.244;2023-04-03T13:30:30;22.63;;;20.17;;
59458;SDS011;45269;43.568;22.244;2023-04-03T13:32:57;23.08;;;20.02;;
59458;SDS011;45269;43.568;22.244;2023-04-03T13:37:56;22.98;;;19.75;;
59458;SDS011;45269;43.568;22.244;2023-04-03T13:40:22;24.67;;;21.13;;
59458;SDS011;45269;43.568;22.244;2023-04-03T13:42:58;22.90;;;20.40;;
59458;SDS011;45269;43.568;22.244;2023-04-03T13:45:27;23.08;;;20.50;;
59458;SDS011;45269;43.568;22.244;2023-04-03T13:47:55;24.15;;;21.70;;
59458;SDS011;45269;43.568;22.244;2023-04-03T13:50:31;26.92;;;23.92;;
59458;SDS011;45269;43.568;22.244;2023-04-03T13:53:18;29.88;;;26.48;;
59458;SDS011;45269;43.568;22.244;2023-04-03T13:58:27;28.42;;;24.48;;
59458;SDS011;45269;43.568;22.244;2023-04-03T14:00:55;26.70;;;23.90;;
59458;SDS011;45269;43.568;22.244;2023-04-03T14:03:25;26.60;;;23.80;;
59458;SDS011;45269;43.568;22.244;2023-04-03T14:05:51;27.48;;;24.67;;
59458;SDS011;45269;43.568;22.244;2023-04-03T14:08:17;30.50;;;26.10;;
59458;SDS011;45269;43.568;22.244;2023-04-03T14:10:42;33.45;;;29.92;;
59458;SDS011;45269;43.568;22.244;2023-04-03T14:13:12;33.17;;;29.58;;
59458;SDS011;45269;43.568;22.244;2023-04-03T14:15:38;46.15;;;40.50;;
59458;SDS011;45269;43.568;22.244;2023-04-03T14:18:03;40.13;;;35.75;;
59458;SDS011;45269;43.568;22.244;2023-04-03T14:20:29;35.30;;;31.52;;
59458;SDS011;45269;43.568;22.244;2023-04-03T14:22:54;38.00;;;33.47;;
59458;SDS011;45269;43.568;22.244;2023-04-03T14:25:21;71.35;;;58.17;;
59458;SDS011;45269;43.568;22.244;2023-04-03T14:27:49;55.28;;;46.75;;
59458;SDS011;45269;43.568;22.244;2023-04-03T14:30:22;70.95;;;60.55;;
59458;SDS011;45269;43.568;22.244;2023-04-03T14:32:48;40.67;;;36.38;;
59458;SDS011;45269;43.568;22.244;2023-04-03T14:35:13;68.82;;;58.00;;
59458;SDS011;45269;43.568;22.244;2023-04-03T14:37:39;47.95;;;41.00;;
59458;SDS011;45269;43.568;22.244;2023-04-03T14:40:06;39.45;;;35.30;;
59458;SDS011;45269;43.568;22.244;2023-04-03T14:42:33;69.13;;;57.17;;
59458;SDS011;45269;43.568;22.244;2023-04-03T14:44:59;42.05;;;34.33;;
59458;SDS011;45269;43.568;22.244;2023-04-03T14:47:26;46.03;;;40.50;;
59458;SDS011;45269;43.568;22.244;2023-04-03T14:49:52;88.50;;;64.43;;
59458;SDS011;45269;43.568;22.244;2023-04-03T14:54:43;148.43;;;107.93;;
59458;SDS011;45269;43.568;22.244;2023-04-03T14:57:08;75.55;;;59.58;;
59458;SDS011;45269;43.568;22.244;2023-04-03T14:59:36;87.90;;;63.65;;
59458;SDS011;45269;43.568;22.244;2023-04-03T15:02:01;49.42;;;43.80;;
59458;SDS011;45269;43.568;22.244;2023-04-03T15:04:27;68.22;;;57.97;;
59458;SDS011;45269;43.568;22.244;2023-04-03T15:06:53;50.65;;;42.47;;
59458;SDS011;45269;43.568;22.244;2023-04-03T15:09:25;57.55;;;50.30;;
59458;SDS011;45269;43.568;22.244;2023-04-03T15:11:51;35.47;;;31.52;;
59458;SDS011;45269;43.568;22.244;2023-04-03T15:14:17;35.95;;;31.98;;
59458;SDS011;45269;43.568;22.244;2023-04-03T15:16:42;75.63;;;66.88;;
59458;SDS011;45269;43.568;22.244;2023-04-03T15:19:08;40.92;;;36.75;;
59458;SDS011;45269;43.568;22.244;2023-04-03T15:21:33;54.67;;;48.72;;
59458;SDS011;45269;43.568;22.244;2023-04-03T15:23:59;44.28;;;39.50;;
59458;SDS011;45269;43.568;22.244;2023-04-03T15:26:24;61.85;;;54.30;;
59458;SDS011;45269;43.568;22.244;2023-04-03T15:28:50;55.72;;;49.80;;
59458;SDS011;45269;43.568;22.244;2023-04-03T15:31:15;38.65;;;34.63;;
59458;SDS011;45269;43.568;22.244;2023-04-03T15:33:40;33.47;;;30.17;;
59458;SDS011;45269;43.568;22.244;2023-04-03T15:36:06;165.25;;;112.45;;
59458;SDS011;45269;43.568;22.244;2023-04-03T15:38:31;115.18;;;81.07;;
59458;SDS011;45269;43.568;22.244;2023-04-03T15:40:57;107.57;;;78.10;;
59458;SDS011;45269;43.568;22.244;2023-04-03T15:43:22;69.47;;;53.20;;
59458;SDS011;45269;43.568;22.244;2023-04-03T15:45:48;78.75;;;59.83;;